createdAt,value
2019-05-12T00:01:55.406Z,93.80
2019-05-12T00:05:58.863Z,93.80
2019-05-12T00:10:02.321Z,93.80
2019-05-12T00:14:05.747Z,93.80
2019-05-12T00:18:09.443Z,93.90
2019-05-12T00:22:14.674Z,94.10
2019-05-12T00:26:18.658Z,94.10
2019-05-12T00:30:32.261Z,94.10
2019-05-12T00:34:35.705Z,94.20
2019-05-12T00:38:39.141Z,94.20
2019-05-12T00:42:42.585Z,94.30
2019-05-12T00:46:46.043Z,94.40
2019-05-12T00:50:49.490Z,94.40
2019-05-12T00:54:52.930Z,94.40
2019-05-12T00:58:58.024Z,94.30
2019-05-12T01:03:01.597Z,94.50
2019-05-12T01:07:05.294Z,94.40
2019-05-12T01:11:08.860Z,94.30
2019-05-12T01:15:12.991Z,94.30
2019-05-12T01:19:18.449Z,94.40
2019-05-12T01:23:23.493Z,94.30
2019-05-12T01:27:28.643Z,94.30
2019-05-12T01:31:33.574Z,94.20
2019-05-12T01:35:38.862Z,94.30
2019-05-12T01:39:42.573Z,94.30
2019-05-12T01:43:46.022Z,94.50
2019-05-12T01:47:49.718Z,94.50
2019-05-12T01:51:53.167Z,94.60
2019-05-12T01:55:58.534Z,94.70
2019-05-12T02:00:02.085Z,94.70
2019-05-12T02:04:07.558Z,94.80
2019-05-12T02:08:12.330Z,94.90
2019-05-12T02:12:18.153Z,95.00
2019-05-12T02:16:20.942Z,95.20
2019-05-12T02:20:24.465Z,95.50
2019-05-12T02:24:30.482Z,95.70
2019-05-12T02:28:33.078Z,96.10
2019-05-12T02:32:48.061Z,96.10
2019-05-12T02:36:44.617Z,96.20
2019-05-12T02:40:46.409Z,96.20
2019-05-12T02:44:50.134Z,96.70
2019-05-12T02:48:54.725Z,96.80
2019-05-12T02:52:58.318Z,96.90
2019-05-12T02:57:04.436Z,96.80
2019-05-12T03:01:08.554Z,96.80
2019-05-12T03:05:14.839Z,96.70
2019-05-12T03:09:17.244Z,96.60
2019-05-12T03:13:20.938Z,96.90
2019-05-12T03:17:25.334Z,97.10
2019-05-12T03:21:28.956Z,97.20
2019-05-12T03:25:35.867Z,97.50
2019-05-12T03:29:37.562Z,97.10
2019-05-12T03:33:45.709Z,97.00
2019-05-12T03:37:45.481Z,97.10
2019-05-12T03:41:48.914Z,96.80
2019-05-12T03:45:55.622Z,96.90
2019-05-12T03:49:57.534Z,96.80
2019-05-12T03:54:04.414Z,97.10
2019-05-12T03:58:06.666Z,97.50
2019-05-12T04:02:10.160Z,97.50
2019-05-12T04:06:15.502Z,97.70
2019-05-12T04:10:20.651Z,97.70
2019-05-12T04:14:25.227Z,97.80
2019-05-12T04:18:28.957Z,97.80
2019-05-12T04:22:35.181Z,97.80
2019-05-12T04:26:37.020Z,97.70
2019-05-12T04:30:40.509Z,97.70
2019-05-12T04:34:44.724Z,97.60
2019-05-12T04:38:48.363Z,97.60
2019-05-12T04:42:54.767Z,97.50
2019-05-12T04:46:57.212Z,97.00
2019-05-12T04:51:00.655Z,96.80
2019-05-12T04:55:05.186Z,96.80
2019-05-12T04:59:08.923Z,96.80
2019-05-12T05:03:14.212Z,96.20
2019-05-12T05:07:17.553Z,95.80
2019-05-12T05:11:21.004Z,95.90
2019-05-12T05:15:25.134Z,96.00
2019-05-12T05:19:28.625Z,95.50
2019-05-12T05:23:33.488Z,95.30
2019-05-12T05:27:37.085Z,94.60
2019-05-12T05:31:40.781Z,94.70
2019-05-12T05:35:44.257Z,94.40
2019-05-12T05:39:49.644Z,93.80
2019-05-12T05:43:58.262Z,93.90
2019-05-12T05:47:59.566Z,93.40
2019-05-12T05:52:03.878Z,93.20
2019-05-12T05:56:08.257Z,93.40
2019-05-12T06:00:17.245Z,92.60
2019-05-12T06:04:17.209Z,93.30
2019-05-12T06:08:21.146Z,92.30
2019-05-12T06:12:25.822Z,92.10
2019-05-12T06:16:29.298Z,91.90
2019-05-12T06:20:37.473Z,91.80
2019-05-12T06:24:38.211Z,92.30
2019-05-12T06:28:43.800Z,91.60
2019-05-12T06:32:50.501Z,91.30
2019-05-12T06:36:56.503Z,91.60
2019-05-12T06:40:57.409Z,90.70
2019-05-12T06:45:00.862Z,90.80
2019-05-12T06:49:12.616Z,89.00
2019-05-12T06:53:08.955Z,87.80
2019-05-12T06:57:22.130Z,87.30
2019-05-12T07:01:19.466Z,88.00
2019-05-12T07:05:23.322Z,86.70
2019-05-12T07:09:28.728Z,85.30
2019-05-12T07:13:34.108Z,84.80
2019-05-12T07:17:49.669Z,85.50
2019-05-12T07:21:50.609Z,82.30
2019-05-12T07:25:55.335Z,82.50
2019-05-12T07:29:58.774Z,81.00
2019-05-12T07:34:05.337Z,79.70
2019-05-12T07:38:12.034Z,80.80
2019-05-12T07:42:13.971Z,81.90
2019-05-12T07:46:17.602Z,79.80
2019-05-12T07:50:24.864Z,81.20
2019-05-12T07:54:29.341Z,78.60
2019-05-12T07:58:33.304Z,76.60
2019-05-12T08:02:36.891Z,77.80
2019-05-12T08:06:42.554Z,74.30
2019-05-12T08:10:45.538Z,75.30
2019-05-12T08:14:49.241Z,73.50
2019-05-12T08:18:53.508Z,76.00
2019-05-12T08:22:59.670Z,71.20
2019-05-12T08:27:05.791Z,74.10
2019-05-12T08:31:07.333Z,70.90
2019-05-12T08:35:10.944Z,72.90
2019-05-12T08:39:21.427Z,71.10
2019-05-12T08:43:19.557Z,67.20
2019-05-12T08:47:23.893Z,71.30
2019-05-12T08:51:27.747Z,65.70
2019-05-12T08:55:33.345Z,65.20
2019-05-12T08:59:36.898Z,67.30
2019-05-12T09:03:40.329Z,66.70
2019-05-12T09:07:44.067Z,65.60
2019-05-12T09:11:47.895Z,65.50
2019-05-12T09:15:53.997Z,65.30
2019-05-12T09:20:05.993Z,64.50
2019-05-12T09:24:04.225Z,60.10
2019-05-12T09:28:08.522Z,61.60
2019-05-12T09:32:14.368Z,61.40
2019-05-12T09:36:21.766Z,60.00
2019-05-12T09:40:24.699Z,57.20
2019-05-12T09:44:30.433Z,55.20
2019-05-12T09:48:33.542Z,56.40
2019-05-12T09:52:37.030Z,58.70
2019-05-12T09:56:41.379Z,56.10
2019-05-12T10:00:45.651Z,55.30
2019-05-12T10:04:55.584Z,53.80
2019-05-12T10:08:55.534Z,58.10
2019-05-12T10:12:59.237Z,54.60
2019-05-12T10:17:03.661Z,58.30
2019-05-12T10:21:10.141Z,57.60
2019-05-12T10:25:14.400Z,54.10
2019-05-12T10:29:20.904Z,53.10
2019-05-12T10:33:23.387Z,55.40
2019-05-12T10:37:29.325Z,54.60
2019-05-12T10:41:34.139Z,54.80
2019-05-12T10:45:37.462Z,53.90
2019-05-12T10:49:40.920Z,56.60
2019-05-12T10:53:48.704Z,55.50
2019-05-12T10:57:52.904Z,56.50
2019-05-12T11:01:55.281Z,58.00
2019-05-12T11:06:02.388Z,57.10
2019-05-12T11:10:15.138Z,58.20
2019-05-12T11:14:14.270Z,56.10
2019-05-12T11:18:20.627Z,59.80
2019-05-12T11:22:23.417Z,59.50
2019-05-12T11:26:26.866Z,59.40
2019-05-12T11:30:30.313Z,57.10
2019-05-12T11:34:35.301Z,59.10
2019-05-12T11:38:39.026Z,57.60
2019-05-12T11:42:46.795Z,56.20
2019-05-12T11:46:47.652Z,57.80
2019-05-12T11:50:51.466Z,56.10
2019-05-12T11:54:55.059Z,55.00
2019-05-12T11:58:58.762Z,55.10
2019-05-12T12:03:05.791Z,53.20
2019-05-12T12:07:07.373Z,52.00
2019-05-12T12:11:18.595Z,50.20
2019-05-12T12:15:20.586Z,49.70
2019-05-12T12:19:26.103Z,49.10
2019-05-12T12:23:25.955Z,49.20
2019-05-12T12:27:29.397Z,49.90
2019-05-12T12:31:52.440Z,49.20
2019-05-12T12:36:00.563Z,50.40
2019-05-12T12:40:01.308Z,47.60
2019-05-12T12:44:04.754Z,50.90
2019-05-12T12:48:08.525Z,49.90
2019-05-12T12:52:13.792Z,49.70
2019-05-12T12:56:27.729Z,50.80
2019-05-12T13:00:31.998Z,54.20
2019-05-12T13:04:28.929Z,51.10
2019-05-12T13:08:34.431Z,53.80
2019-05-12T13:12:38.230Z,48.60
2019-05-12T13:16:43.720Z,52.20
2019-05-12T13:20:46.966Z,49.50
2019-05-12T13:24:50.413Z,50.40
2019-05-12T13:28:55.189Z,49.10
2019-05-12T13:32:58.811Z,49.40
2019-05-12T13:37:03.592Z,46.40
2019-05-12T13:41:09.629Z,49.90
2019-05-12T13:45:15.936Z,50.80
2019-05-12T13:49:17.626Z,46.30
2019-05-12T13:53:21.168Z,50.50
2019-05-12T13:57:24.677Z,46.00
2019-05-12T14:01:31.919Z,47.00
2019-05-12T14:05:33.352Z,47.70
2019-05-12T14:09:36.790Z,45.60
2019-05-12T14:13:40.239Z,48.60
2019-05-12T14:17:43.938Z,49.10
2019-05-12T14:21:47.659Z,45.80
2019-05-12T14:25:51.113Z,47.40
2019-05-12T14:29:54.603Z,47.00
2019-05-12T14:33:58.054Z,44.40
2019-05-12T14:38:03.676Z,46.30
2019-05-12T14:42:06.705Z,43.90
2019-05-12T14:46:10.598Z,44.80
2019-05-12T14:50:14.511Z,46.20
2019-05-12T14:54:17.950Z,44.30
2019-05-12T14:58:23.433Z,48.30
2019-05-12T15:02:29.371Z,46.40
2019-05-12T15:06:34.706Z,45.30
2019-05-12T15:10:38.183Z,46.00
2019-05-12T15:14:43.673Z,49.20
2019-05-12T15:18:48.929Z,47.60
2019-05-12T15:22:55.209Z,46.10
2019-05-12T15:27:00.590Z,47.90
2019-05-12T15:31:03.840Z,45.30
2019-05-12T15:35:07.530Z,46.40
2019-05-12T15:39:10.995Z,45.80
2019-05-12T15:43:14.710Z,46.50
2019-05-12T15:47:18.179Z,51.20
2019-05-12T15:51:21.634Z,48.20
2019-05-12T15:55:32.668Z,51.10
2019-05-12T15:59:30.847Z,50.20
2019-05-12T16:03:34.468Z,50.60
2019-05-12T16:07:39.696Z,51.70
2019-05-12T16:11:43.310Z,50.80
2019-05-12T16:15:49.428Z,51.60
2019-05-12T16:19:53.979Z,50.40
2019-05-12T16:24:03.021Z,50.90
2019-05-12T16:28:07.235Z,52.50
2019-05-12T16:32:07.708Z,52.40
2019-05-12T16:36:12.280Z,51.00
2019-05-12T16:40:16.673Z,53.70
2019-05-12T16:44:23.152Z,52.10
2019-05-12T16:48:32.171Z,52.50
2019-05-12T16:52:32.428Z,52.60
2019-05-12T16:56:35.729Z,52.10
2019-05-12T17:00:39.565Z,54.20
2019-05-12T17:04:44.353Z,54.00
2019-05-12T17:08:49.518Z,54.70
2019-05-12T17:12:54.347Z,55.50
2019-05-12T17:16:58.162Z,55.80
2019-05-12T17:21:03.941Z,56.50
2019-05-12T17:25:10.443Z,57.50
2019-05-12T17:29:13.858Z,57.30
2019-05-12T17:33:22.895Z,58.30
2019-05-12T17:37:23.902Z,58.80
2019-05-12T17:41:31.426Z,59.70
2019-05-12T17:45:32.963Z,61.20
2019-05-12T17:49:39.077Z,60.90
2019-05-12T17:53:43.355Z,61.90
2019-05-12T17:57:50.467Z,62.90
2019-05-12T18:01:53.781Z,63.60
2019-05-12T18:05:57.582Z,63.40
2019-05-12T18:10:01.042Z,64.10
2019-05-12T18:14:07.181Z,63.30
2019-05-12T18:18:10.116Z,62.90
2019-05-12T18:22:14.294Z,64.90
2019-05-12T18:26:17.864Z,65.10
2019-05-12T18:30:23.617Z,64.70
2019-05-12T18:34:26.574Z,66.50
2019-05-12T18:38:31.955Z,66.90
2019-05-12T18:42:36.127Z,67.60
2019-05-12T18:46:45.170Z,67.80
2019-05-12T18:50:44.921Z,69.20
2019-05-12T18:54:52.131Z,70.50
2019-05-12T18:58:54.519Z,72.20
2019-05-12T19:02:59.805Z,72.70
2019-05-12T19:07:03.898Z,72.50
2019-05-12T19:11:18.910Z,72.40
2019-05-12T19:15:17.250Z,73.20
2019-05-12T19:19:20.010Z,75.40
2019-05-12T19:23:26.828Z,76.10
2019-05-12T19:27:27.691Z,75.30
2019-05-12T19:31:33.379Z,75.90
2019-05-12T19:35:38.065Z,76.30
2019-05-12T19:39:41.747Z,74.70
2019-05-12T19:43:49.387Z,75.70
2019-05-12T19:47:50.463Z,74.30
2019-05-12T19:51:54.376Z,74.60
2019-05-12T19:55:58.087Z,75.00
2019-05-12T20:00:01.583Z,75.80
2019-05-12T20:04:05.018Z,76.60
2019-05-12T20:08:08.488Z,78.40
2019-05-12T20:12:18.544Z,78.40
2019-05-12T20:16:21.427Z,78.50
2019-05-12T20:20:26.724Z,80.00
2019-05-12T20:24:27.504Z,81.00
2019-05-12T20:28:31.204Z,81.30
2019-05-12T20:32:34.647Z,81.70
2019-05-12T20:36:38.346Z,81.30
2019-05-12T20:40:43.331Z,80.70
2019-05-12T20:44:51.252Z,81.70
2019-05-12T20:48:53.828Z,81.90
2019-05-12T20:52:58.883Z,82.20
2019-05-12T20:57:07.639Z,82.50
2019-05-12T21:01:07.039Z,83.30
2019-05-12T21:05:16.399Z,83.50
2019-05-12T21:09:15.874Z,83.90
2019-05-12T21:13:27.142Z,84.40
2019-05-12T21:17:39.359Z,84.50
2019-05-12T21:21:34.331Z,85.00
2019-05-12T21:25:37.566Z,86.20
2019-05-12T21:29:43.278Z,86.90
2019-05-12T21:33:46.414Z,87.00
2019-05-12T21:37:49.864Z,86.90
2019-05-12T21:41:54.960Z,86.70
2019-05-12T21:46:01.178Z,86.90
2019-05-12T21:50:04.481Z,87.70
2019-05-12T21:54:10.207Z,88.70
2019-05-12T21:58:15.228Z,89.30
2019-05-12T22:02:19.584Z,90.00
2019-05-12T22:06:24.999Z,90.30
2019-05-12T22:10:30.797Z,90.30
2019-05-12T22:14:38.733Z,90.20
2019-05-12T22:18:39.343Z,90.40
2019-05-12T22:22:42.799Z,90.90
2019-05-12T22:26:46.759Z,91.10
2019-05-12T22:30:50.539Z,91.30
2019-05-12T22:34:54.461Z,91.30
2019-05-12T22:39:00.904Z,91.50
2019-05-12T22:43:04.432Z,91.80
2019-05-12T22:47:12.877Z,92.00
2019-05-12T22:51:18.573Z,92.30
2019-05-12T22:55:21.269Z,92.40
2019-05-12T22:59:24.170Z,92.30
2019-05-12T23:03:27.618Z,92.50
2019-05-12T23:07:33.048Z,92.50
2019-05-12T23:11:37.772Z,92.50
2019-05-12T23:15:47.559Z,92.60
2019-05-12T23:19:51.367Z,92.80
2019-05-12T23:23:57.377Z,93.10
2019-05-12T23:28:00.350Z,93.30
2019-05-12T23:32:07.226Z,93.30
2019-05-12T23:36:09.634Z,93.40
2019-05-12T23:40:16.431Z,93.50
2019-05-12T23:44:17.543Z,93.80
2019-05-12T23:48:21.559Z,94.00
2019-05-12T23:52:24.998Z,93.90
2019-05-12T23:56:28.699Z,93.90
